Time;durP1;ratioP1;P1;durP2;ratioP2;P2;SDS_P1;SDS_P2;PMS_P1;PMS_P2;Temp;Humidity;BMP_temperature;BMP_pressure;BME280_temperature;BME280_humidity;BME280_pressure;Samples;Min_cycle;Max_cycle;Signal;HPM_P1;HPM_P2
2023/12/31 00:00:41;;;;;;;4.83;2.50;;;6.70;99.90;;;;;;5048664;28;20254;-77
2023/12/31 00:03:10;;;;;;;6.60;2.60;;;6.70;99.90;;;;;;5047923;28;20208;-77
2023/12/31 00:05:37;;;;;;;3.63;2.47;;;6.70;99.90;;;;;;5048627;28;20212;-77
2023/12/31 00:08:04;;;;;;;4.10;2.33;;;6.70;99.90;;;;;;5047711;28;20303;-77
2023/12/31 00:10:31;;;;;;;3.97;2.33;;;6.70;99.90;;;;;;5047767;28;20330;-77
2023/12/31 00:12:58;;;;;;;5.03;2.50;;;6.70;99.90;;;;;;5047805;28;20236;-77
2023/12/31 00:15:24;;;;;;;5.03;2.20;;;6.80;99.90;;;;;;5047373;28;20228;-77
2023/12/31 00:17:51;;;;;;;4.93;2.23;;;6.70;99.90;;;;;;5048086;28;20204;-76
2023/12/31 00:20:20;;;;;;;3.10;2.40;;;6.80;99.90;;;;;;5047296;28;20212;-76
2023/12/31 00:22:46;;;;;;;3.57;2.67;;;6.80;99.90;;;;;;5047278;28;20319;-76
2023/12/31 00:25:13;;;;;;;4.73;2.23;;;6.70;99.90;;;;;;5046015;28;20291;-76
2023/12/31 00:27:41;;;;;;;3.80;2.47;;;6.70;99.90;;;;;;5037705;28;20230;-77
2023/12/31 00:30:09;;;;;;;3.60;2.27;;;6.70;99.90;;;;;;5033838;28;20619;-76
2023/12/31 00:32:36;;;;;;;3.17;2.30;;;6.80;99.90;;;;;;5047074;28;20335;-76
2023/12/31 00:35:03;;;;;;;5.63;2.57;;;6.70;99.90;;;;;;5048009;28;20239;-76
2023/12/31 00:37:31;;;;;;;4.83;2.80;;;6.70;99.90;;;;;;5048215;28;20291;-77
2023/12/31 00:39:58;;;;;;;5.20;2.57;;;6.70;99.90;;;;;;5048044;28;20265;-77
2023/12/31 00:42:25;;;;;;;4.23;2.50;;;6.70;99.90;;;;;;5047799;28;20695;-76
2023/12/31 00:44:52;;;;;;;3.90;2.40;;;6.70;99.90;;;;;;5048412;28;20208;-77
2023/12/31 00:47:19;;;;;;;3.17;2.30;;;6.70;99.90;;;;;;5047649;28;20685;-77
2023/12/31 00:49:46;;;;;;;3.77;2.00;;;6.70;99.90;;;;;;5048045;28;20311;-77
2023/12/31 00:52:12;;;;;;;6.47;2.30;;;6.70;99.90;;;;;;5036511;28;20336;-77
2023/12/31 00:54:41;;;;;;;4.83;2.63;;;6.60;99.90;;;;;;5045568;28;20677;-76
2023/12/31 00:57:08;;;;;;;8.20;2.90;;;6.70;99.90;;;;;;5032473;28;20228;-77
2023/12/31 00:59:35;;;;;;;3.77;2.33;;;6.70;99.90;;;;;;5038719;28;20284;-77
2023/12/31 01:02:02;;;;;;;5.13;2.43;;;6.70;99.90;;;;;;5037975;28;20290;-77
2023/12/31 01:04:28;;;;;;;2.80;1.97;;;6.70;99.90;;;;;;5037316;28;20698;-77
2023/12/31 01:06:55;;;;;;;3.10;2.40;;;6.60;99.90;;;;;;5036252;28;20633;-76
2023/12/31 01:09:22;;;;;;;4.27;2.50;;;6.60;99.90;;;;;;5041083;28;20298;-76
2023/12/31 01:11:50;;;;;;;4.13;2.70;;;6.60;99.90;;;;;;5046602;28;20290;-75
2023/12/31 01:14:17;;;;;;;5.47;2.23;;;6.60;99.90;;;;;;5047023;28;20263;-81
2023/12/31 01:16:44;;;;;;;4.87;2.77;;;6.60;99.90;;;;;;5046973;28;20303;-78
2023/12/31 01:19:11;;;;;;;3.60;2.10;;;6.60;99.90;;;;;;5047061;28;20227;-77
2023/12/31 01:21:38;;;;;;;2.67;2.03;;;6.60;99.90;;;;;;5047242;28;20208;-77
2023/12/31 01:24:05;;;;;;;5.10;2.77;;;6.60;99.90;;;;;;5046558;28;20990;-77
2023/12/31 01:26:32;;;;;;;3.67;2.67;;;6.60;99.90;;;;;;5047554;28;20283;-77
2023/12/31 01:29:00;;;;;;;8.97;2.53;;;6.50;99.90;;;;;;5047322;28;20291;-77
2023/12/31 01:31:27;;;;;;;3.73;2.10;;;6.50;99.90;;;;;;5047205;28;20258;-77
2023/12/31 01:33:54;;;;;;;3.43;2.17;;;6.50;99.90;;;;;;5047415;28;20238;-77
2023/12/31 01:36:24;;;;;;;3.53;2.20;;;6.50;99.90;;;;;;5047721;28;20215;-77
2023/12/31 01:38:52;;;;;;;3.17;1.97;;;6.50;99.90;;;;;;5047014;28;20290;-77
2023/12/31 01:41:18;;;;;;;6.13;2.30;;;6.50;99.90;;;;;;5047071;28;20214;-76
2023/12/31 01:43:45;;;;;;;4.93;2.20;;;6.50;99.90;;;;;;5047098;28;20208;-75
2023/12/31 01:46:27;;;;;;;5.70;2.30;;;6.50;99.90;;;;;;5041848;28;20746;-75
2023/12/31 01:48:54;;;;;;;5.83;2.07;;;6.50;99.90;;;;;;5027497;28;20201;-75
2023/12/31 01:51:21;;;;;;;6.37;2.40;;;6.50;99.90;;;;;;5027157;28;20288;-76
2023/12/31 01:53:48;;;;;;;3.57;2.03;;;6.50;99.90;;;;;;5026940;28;20314;-76
2023/12/31 01:56:15;;;;;;;4.53;2.50;;;6.40;99.90;;;;;;5026756;28;20292;-76
2023/12/31 01:58:43;;;;;;;4.27;2.07;;;6.40;99.90;;;;;;5027278;28;20297;-75
2023/12/31 02:01:11;;;;;;;3.77;2.20;;;6.40;99.90;;;;;;5026715;28;20255;-76
2023/12/31 02:03:39;;;;;;;4.10;2.20;;;6.40;99.90;;;;;;5037065;28;20730;-75
2023/12/31 02:06:07;;;;;;;5.63;2.57;;;6.40;99.90;;;;;;5047000;28;20330;-75
2023/12/31 02:08:33;;;;;;;4.30;2.07;;;6.40;99.90;;;;;;5047159;28;20236;-76
2023/12/31 02:11:00;;;;;;;4.10;2.20;;;6.30;99.90;;;;;;5050623;28;20236;-76
2023/12/31 02:13:27;;;;;;;3.53;2.20;;;6.40;99.90;;;;;;5049964;28;20244;-75
2023/12/31 02:15:54;;;;;;;2.80;2.00;;;6.30;99.90;;;;;;5050350;28;20232;-75
2023/12/31 02:18:21;;;;;;;2.87;2.10;;;6.30;99.90;;;;;;5049953;28;20259;-76
2023/12/31 02:20:49;;;;;;;2.90;2.40;;;6.30;99.90;;;;;;5050787;28;20302;-76
2023/12/31 02:23:16;;;;;;;5.33;2.07;;;6.30;99.90;;;;;;5050161;28;20299;-76
2023/12/31 02:25:48;;;;;;;3.30;2.17;;;6.30;99.90;;;;;;5047380;28;20212;-78
2023/12/31 02:28:17;;;;;;;3.90;2.37;;;6.30;99.90;;;;;;5030397;28;20279;-77
2023/12/31 02:30:44;;;;;;;3.23;2.10;;;6.30;99.90;;;;;;5041430;28;20295;-77
2023/12/31 02:33:11;;;;;;;3.00;2.07;;;6.30;99.90;;;;;;5049823;28;20228;-77
2023/12/31 02:35:38;;;;;;;5.07;2.20;;;6.30;99.90;;;;;;5050019;28;20732;-77
2023/12/31 02:38:04;;;;;;;2.80;2.40;;;6.30;99.90;;;;;;5049704;28;20675;-77
2023/12/31 02:40:31;;;;;;;3.17;2.40;;;6.30;99.90;;;;;;5050134;28;20259;-77
2023/12/31 02:42:58;;;;;;;5.87;2.50;;;6.20;99.90;;;;;;5050297;28;20298;-77
2023/12/31 02:45:26;;;;;;;5.10;2.47;;;6.20;99.90;;;;;;5050199;28;20226;-78
2023/12/31 02:47:53;;;;;;;5.97;2.60;;;6.20;99.90;;;;;;5050222;28;20218;-78
2023/12/31 02:50:20;;;;;;;2.87;2.30;;;6.20;99.90;;;;;;5049963;28;20314;-77
2023/12/31 02:52:48;;;;;;;7.10;2.63;;;6.20;99.90;;;;;;5050037;28;20346;-78
2023/12/31 02:55:15;;;;;;;4.97;2.40;;;6.20;99.90;;;;;;5049828;28;20207;-75
2023/12/31 02:57:42;;;;;;;5.30;2.60;;;6.20;99.90;;;;;;5049679;28;20247;-75
2023/12/31 03:00:10;;;;;;;7.07;2.30;;;6.20;99.90;;;;;;5049501;28;20212;-75
2023/12/31 03:02:40;;;;;;;5.43;2.23;;;6.10;99.90;;;;;;5049591;28;20246;-75
2023/12/31 03:05:08;;;;;;;4.23;2.23;;;6.10;99.90;;;;;;5049328;28;20196;-75
2023/12/31 03:07:35;;;;;;;2.47;2.10;;;6.10;99.90;;;;;;5047996;28;20222;-77
2023/12/31 03:10:02;;;;;;;2.57;2.10;;;6.10;99.90;;;;;;5028718;28;20680;-77
2023/12/31 03:12:29;;;;;;;3.23;2.37;;;6.10;99.90;;;;;;5029081;28;20739;-77
2023/12/31 03:14:56;;;;;;;4.47;2.50;;;6.10;99.90;;;;;;5029637;28;20311;-77
2023/12/31 03:17:23;;;;;;;6.13;2.33;;;6.10;99.90;;;;;;5030482;28;20304;-77
2023/12/31 03:19:52;;;;;;;5.70;2.70;;;6.10;99.90;;;;;;5029241;28;20288;-77
2023/12/31 03:22:18;;;;;;;4.37;2.40;;;6.10;99.90;;;;;;5029087;28;20255;-77
2023/12/31 03:24:45;;;;;;;3.60;2.30;;;6.10;99.90;;;;;;5028968;28;20303;-77
2023/12/31 03:27:12;;;;;;;5.17;2.43;;;6.10;99.90;;;;;;5044412;28;20237;-76
2023/12/31 03:29:39;;;;;;;5.10;2.43;;;6.10;99.90;;;;;;5049324;28;20250;-77
2023/12/31 03:32:06;;;;;;;3.47;2.37;;;6.10;99.90;;;;;;5048973;28;20234;-77
2023/12/31 03:34:33;;;;;;;2.90;2.13;;;6.10;99.90;;;;;;5049339;28;20266;-77
2023/12/31 03:37:01;;;;;;;2.50;2.20;;;6.10;99.90;;;;;;5049139;28;20208;-78
2023/12/31 03:39:28;;;;;;;5.33;2.40;;;6.10;99.90;;;;;;5049219;28;20235;-77
2023/12/31 03:41:55;;;;;;;4.20;2.23;;;6.10;99.90;;;;;;5048965;28;20204;-76
2023/12/31 03:44:22;;;;;;;3.83;2.30;;;6.10;99.90;;;;;;5048469;28;20295;-75
2023/12/31 03:46:49;;;;;;;4.40;2.60;;;6.00;99.90;;;;;;5048835;28;20919;-75
2023/12/31 03:49:16;;;;;;;4.13;2.30;;;6.10;99.90;;;;;;5048747;28;20293;-75
2023/12/31 03:51:43;;;;;;;2.70;2.30;;;6.10;99.90;;;;;;5048498;28;20287;-75
2023/12/31 03:54:11;;;;;;;2.30;2.10;;;6.00;99.90;;;;;;5047853;28;20231;-77
2023/12/31 03:56:38;;;;;;;3.20;2.50;;;6.00;99.90;;;;;;5048723;28;20291;-77
2023/12/31 03:59:04;;;;;;;3.87;2.00;;;6.00;99.90;;;;;;5048747;28;20214;-76
2023/12/31 04:01:31;;;;;;;6.17;2.47;;;6.00;99.90;;;;;;5048392;28;20246;-76
2023/12/31 04:04:00;;;;;;;4.07;2.27;;;6.00;99.90;;;;;;5046658;28;20251;-77
2023/12/31 04:06:26;;;;;;;2.20;2.00;;;6.00;99.90;;;;;;5028711;28;20204;-76
2023/12/31 04:08:56;;;;;;;3.80;2.13;;;6.00;99.90;;;;;;5028061;28;20236;-77
2023/12/31 04:11:25;;;;;;;5.67;2.37;;;6.00;99.90;;;;;;5028414;28;20231;-77
2023/12/31 04:13:51;;;;;;;4.87;2.20;;;6.00;99.90;;;;;;5047719;28;20232;-78
2023/12/31 04:16:18;;;;;;;4.80;2.20;;;6.00;99.90;;;;;;5048312;28;20298;-77
2023/12/31 04:18:45;;;;;;;3.20;2.07;;;6.00;99.90;;;;;;5048406;28;20231;-77
2023/12/31 04:21:15;;;;;;;3.67;2.20;;;6.00;99.90;;;;;;5048362;28;20215;-78
2023/12/31 04:23:42;;;;;;;4.40;2.03;;;6.00;99.90;;;;;;5047978;28;20204;-78
2023/12/31 04:26:08;;;;;;;2.57;2.10;;;6.00;99.90;;;;;;5047977;28;20336;-78
2023/12/31 04:28:37;;;;;;;5.23;2.10;;;6.00;99.90;;;;;;5047980;28;20215;-77
2023/12/31 04:31:04;;;;;;;4.27;2.40;;;6.00;99.90;;;;;;5047909;28;20298;-78
2023/12/31 04:33:31;;;;;;;4.43;2.20;;;6.00;99.90;;;;;;5048320;28;20235;-78
2023/12/31 04:35:58;;;;;;;4.00;2.17;;;6.00;99.90;;;;;;5048546;28;20214;-78
2023/12/31 04:38:25;;;;;;;3.90;1.97;;;6.00;99.90;;;;;;5047817;28;20291;-78
2023/12/31 04:40:51;;;;;;;3.13;1.80;;;6.00;99.90;;;;;;5048309;28;20326;-77
2023/12/31 04:43:18;;;;;;;4.40;2.57;;;6.00;99.90;;;;;;5047831;28;20295;-77
2023/12/31 04:45:46;;;;;;;2.53;2.00;;;6.00;99.90;;;;;;5048113;28;20327;-78
2023/12/31 04:48:13;;;;;;;2.73;2.20;;;6.00;99.90;;;;;;5048014;28;20255;-79
2023/12/31 04:50:42;;;;;;;3.87;2.10;;;6.10;99.90;;;;;;5048381;28;20258;-79
2023/12/31 04:53:09;;;;;;;4.13;2.07;;;6.00;99.90;;;;;;5047509;28;20242;-78
2023/12/31 04:55:36;;;;;;;4.40;2.13;;;6.10;99.90;;;;;;5048145;28;20204;-79
2023/12/31 04:58:03;;;;;;;4.90;2.13;;;6.10;99.90;;;;;;5048047;28;20236;-79
2023/12/31 05:00:30;;;;;;;3.20;1.83;;;6.10;99.90;;;;;;5047263;28;20295;-78
2023/12/31 05:02:58;;;;;;;2.23;1.90;;;6.10;99.90;;;;;;5047953;28;20299;-79
2023/12/31 05:05:26;;;;;;;3.10;2.20;;;6.10;99.90;;;;;;5047749;28;20212;-79
2023/12/31 05:07:53;;;;;;;3.17;1.77;;;6.10;99.90;;;;;;5046559;28;20203;-79
2023/12/31 05:10:20;;;;;;;4.60;2.23;;;6.10;99.90;;;;;;5047424;28;20869;-79
2023/12/31 05:12:46;;;;;;;2.60;2.03;;;6.10;99.90;;;;;;5047662;28;20313;-78
2023/12/31 05:15:15;;;;;;;2.23;2.03;;;6.10;99.90;;;;;;5047154;28;20251;-79
2023/12/31 05:17:41;;;;;;;2.13;1.83;;;6.10;99.90;;;;;;5047799;28;20762;-80
2023/12/31 05:20:11;;;;;;;3.10;1.87;;;6.10;99.90;;;;;;5047525;28;20219;-80
2023/12/31 05:22:38;;;;;;;2.63;1.80;;;6.10;99.90;;;;;;5047754;28;20236;-80
2023/12/31 05:25:05;;;;;;;2.73;1.80;;;6.10;99.90;;;;;;5047534;28;20239;-80
2023/12/31 05:27:32;;;;;;;3.23;1.93;;;6.10;99.90;;;;;;5047555;28;20242;-80
2023/12/31 05:29:59;;;;;;;3.83;1.87;;;6.10;99.90;;;;;;5047920;28;20290;-81
2023/12/31 05:32:26;;;;;;;4.13;1.90;;;6.10;99.90;;;;;;5047259;28;20554;-80
2023/12/31 05:34:53;;;;;;;3.93;2.00;;;6.10;99.90;;;;;;5046955;28;20200;-80
2023/12/31 05:37:21;;;;;;;3.67;2.07;;;6.10;99.90;;;;;;5035935;28;20267;-80
2023/12/31 05:39:48;;;;;;;3.80;2.00;;;6.10;99.90;;;;;;5038008;28;20202;-80
2023/12/31 05:42:15;;;;;;;5.57;2.10;;;6.10;99.90;;;;;;5035168;28;20250;-79
2023/12/31 05:44:42;;;;;;;2.60;1.80;;;6.10;99.90;;;;;;5035382;28;20292;-74
2023/12/31 05:47:09;;;;;;;3.67;1.80;;;6.10;99.90;;;;;;5031177;28;20296;-74
2023/12/31 05:49:36;;;;;;;2.70;1.70;;;6.10;99.90;;;;;;5049493;28;20204;-76
2023/12/31 05:52:04;;;;;;;1.67;1.57;;;6.10;99.90;;;;;;5051076;28;20203;-75
2023/12/31 05:54:32;;;;;;;3.23;1.77;;;6.10;99.90;;;;;;5050406;28;20717;-77
2023/12/31 05:56:59;;;;;;;2.77;1.57;;;6.10;99.90;;;;;;5050547;28;20208;-76
2023/12/31 05:59:27;;;;;;;5.03;1.90;;;6.10;99.90;;;;;;5050573;28;20730;-76
2023/12/31 06:01:53;;;;;;;1.80;1.70;;;6.10;99.90;;;;;;5051205;28;20199;-76
2023/12/31 06:04:20;;;;;;;2.40;1.70;;;6.10;99.90;;;;;;5050718;28;20307;-76
2023/12/31 06:06:47;;;;;;;3.30;1.97;;;6.10;99.90;;;;;;5050722;28;20303;-76
2023/12/31 06:09:14;;;;;;;3.27;1.60;;;6.10;99.90;;;;;;5050331;28;20330;-76
2023/12/31 06:11:42;;;;;;;3.47;1.70;;;6.10;99.90;;;;;;5050102;28;20683;-76
2023/12/31 06:14:09;;;;;;;2.37;1.63;;;6.10;99.90;;;;;;5050357;28;20232;-76
2023/12/31 06:16:36;;;;;;;2.87;1.77;;;6.10;99.90;;;;;;5050367;28;20300;-76
2023/12/31 06:19:03;;;;;;;3.67;1.93;;;6.10;99.90;;;;;;5049896;28;20294;-76
2023/12/31 06:21:30;;;;;;;2.07;1.63;;;6.10;99.90;;;;;;5050198;28;20266;-76
2023/12/31 06:23:57;;;;;;;2.37;1.67;;;6.20;99.90;;;;;;5049854;28;20291;-75
2023/12/31 06:26:24;;;;;;;2.93;1.73;;;6.20;99.90;;;;;;5040910;28;20339;-76
2023/12/31 06:28:52;;;;;;;5.10;1.83;;;6.10;99.90;;;;;;5030274;28;20300;-77
2023/12/31 06:31:19;;;;;;;3.50;1.80;;;6.10;99.90;;;;;;5029957;28;20197;-76
2023/12/31 06:33:46;;;;;;;4.50;1.80;;;6.20;99.90;;;;;;5030001;28;20224;-76
2023/12/31 06:36:13;;;;;;;3.37;1.73;;;6.20;99.90;;;;;;5030388;28;20637;-76
2023/12/31 06:38:40;;;;;;;2.43;1.90;;;6.20;99.90;;;;;;5029673;28;20215;-78
2023/12/31 06:41:08;;;;;;;3.40;1.80;;;6.20;99.90;;;;;;5029854;28;20216;-77
2023/12/31 06:43:35;;;;;;;2.27;1.60;;;6.20;99.90;;;;;;5030001;28;20219;-77
2023/12/31 06:46:04;;;;;;;3.13;2.13;;;6.20;99.90;;;;;;5030272;28;20296;-76
2023/12/31 06:48:31;;;;;;;6.03;2.10;;;6.20;99.90;;;;;;5039658;28;20216;-76
2023/12/31 06:50:58;;;;;;;3.40;1.90;;;6.20;99.90;;;;;;5049963;28;20286;-76
2023/12/31 06:53:25;;;;;;;2.00;1.80;;;6.20;99.90;;;;;;5049219;28;20595;-77
2023/12/31 06:55:52;;;;;;;2.23;2.03;;;6.20;99.90;;;;;;5048636;28;20219;-76
2023/12/31 06:58:19;;;;;;;2.27;2.03;;;6.20;99.90;;;;;;5049351;28;20319;-76
2023/12/31 07:00:46;;;;;;;2.77;2.00;;;6.20;99.90;;;;;;5043868;28;20300;-76
2023/12/31 07:03:14;;;;;;;2.57;1.63;;;6.20;99.90;;;;;;5029297;28;20295;-76
2023/12/31 07:05:41;;;;;;;3.13;1.80;;;6.20;99.90;;;;;;5029653;28;20299;-76
2023/12/31 07:08:08;;;;;;;3.07;1.90;;;6.20;99.90;;;;;;5029342;28;20291;-76
2023/12/31 07:10:35;;;;;;;6.20;2.40;;;6.20;99.90;;;;;;5028911;28;20327;-76
2023/12/31 07:13:02;;;;;;;2.97;1.90;;;6.20;99.90;;;;;;5029496;28;20296;-77
2023/12/31 07:15:29;;;;;;;3.97;1.90;;;6.30;99.90;;;;;;5029619;28;20228;-77
2023/12/31 07:17:55;;;;;;;3.73;2.20;;;6.20;99.90;;;;;;5029598;28;20324;-77
2023/12/31 07:20:24;;;;;;;2.87;1.83;;;6.20;99.90;;;;;;5029380;28;20248;-79
2023/12/31 07:22:52;;;;;;;8.07;2.77;;;6.20;99.90;;;;;;5028921;28;20328;-76
2023/12/31 07:25:19;;;;;;;7.33;4.37;;;6.30;99.90;;;;;;5029059;28;20964;-76
2023/12/31 07:27:46;;;;;;;3.97;3.20;;;6.20;99.90;;;;;;5029333;28;20291;-76
2023/12/31 07:30:13;;;;;;;7.30;6.73;;;6.20;99.90;;;;;;5035742;28;20254;-76
2023/12/31 07:32:40;;;;;;;3.87;2.40;;;6.30;99.90;;;;;;5049201;28;20295;-77
2023/12/31 07:35:08;;;;;;;2.70;1.90;;;6.30;99.90;;;;;;5049227;28;20266;-77
2023/12/31 07:37:38;;;;;;;3.23;2.10;;;6.20;99.90;;;;;;5048719;28;20205;-79
2023/12/31 07:40:06;;;;;;;2.23;1.80;;;6.30;99.90;;;;;;5048597;28;20208;-79
2023/12/31 07:42:33;;;;;;;2.10;1.90;;;6.30;99.90;;;;;;5048559;28;20214;-78
2023/12/31 07:45:00;;;;;;;2.43;1.80;;;6.30;99.90;;;;;;5048751;28;20303;-76
2023/12/31 07:47:27;;;;;;;2.53;1.80;;;6.30;99.90;;;;;;5048744;28;20219;-76
2023/12/31 07:49:54;;;;;;;3.07;1.83;;;6.30;99.90;;;;;;5048410;28;20208;-76
2023/12/31 07:52:21;;;;;;;2.20;2.00;;;6.30;99.90;;;;;;5048729;28;20208;-76
2023/12/31 07:54:49;;;;;;;3.90;3.50;;;6.30;99.90;;;;;;5048366;28;20334;-77
2023/12/31 07:57:16;;;;;;;6.10;5.50;;;6.40;99.90;;;;;;5040213;28;20231;-76
2023/12/31 07:59:43;;;;;;;2.50;2.30;;;6.30;99.90;;;;;;5048749;28;20653;-78
2023/12/31 08:02:10;;;;;;;9.97;7.03;;;6.30;99.90;;;;;;5048795;28;20227;-77
2023/12/31 08:04:37;;;;;;;11.90;7.67;;;6.40;99.90;;;;;;5048476;28;20287;-79
2023/12/31 08:07:04;;;;;;;13.97;9.13;;;6.40;99.90;;;;;;5048110;28;20291;-76
2023/12/31 08:09:31;;;;;;;4.10;3.70;;;6.40;99.90;;;;;;5047895;28;20326;-76
2023/12/31 08:12:00;;;;;;;4.70;4.30;;;6.40;99.90;;;;;;5048433;28;20292;-76
2023/12/31 08:14:28;;;;;;;2.90;2.57;;;6.40;99.90;;;;;;5048473;28;20238;-76
2023/12/31 08:16:55;;;;;;;3.60;2.00;;;6.50;99.90;;;;;;5048546;28;20204;-77
2023/12/31 08:19:22;;;;;;;4.17;2.13;;;6.40;99.90;;;;;;5048097;28;20216;-77
2023/12/31 08:21:49;;;;;;;3.10;1.90;;;6.50;99.90;;;;;;5048261;28;20299;-77
2023/12/31 08:24:20;;;;;;;1.80;1.70;;;6.50;99.90;;;;;;5047791;28;20216;-77
2023/12/31 08:26:47;;;;;;;3.50;3.20;;;6.50;99.90;;;;;;5036679;28;20213;-78
2023/12/31 08:29:15;;;;;;;8.53;6.83;;;6.60;99.90;;;;;;5028059;28;20288;-77
2023/12/31 08:31:42;;;;;;;17.20;11.40;;;6.60;99.90;;;;;;5028038;28;20868;-76
2023/12/31 08:34:11;;;;;;;3.63;3.17;;;6.60;99.90;;;;;;5027442;28;20228;-78
2023/12/31 08:36:38;;;;;;;15.23;11.13;;;6.60;99.90;;;;;;5027855;28;20299;-78
2023/12/31 08:39:06;;;;;;;8.47;4.40;;;6.60;99.90;;;;;;5027489;28;20209;-78
2023/12/31 08:41:34;;;;;;;2.10;1.87;;;6.60;99.90;;;;;;5041597;28;20690;-78
2023/12/31 08:44:01;;;;;;;3.70;1.83;;;6.60;99.90;;;;;;5048126;28;20212;-78
2023/12/31 08:46:30;;;;;;;2.43;1.70;;;6.70;99.90;;;;;;5047807;28;20306;-78
2023/12/31 08:48:57;;;;;;;2.87;1.80;;;6.70;99.90;;;;;;5048194;28;20212;-78
2023/12/31 08:51:24;;;;;;;2.00;1.70;;;6.70;99.90;;;;;;5047914;28;20267;-77
2023/12/31 08:53:51;;;;;;;1.73;1.50;;;6.80;99.90;;;;;;5047204;28;20322;-77
2023/12/31 08:56:18;;;;;;;1.80;1.70;;;6.70;99.90;;;;;;5039450;28;20219;-78
2023/12/31 08:58:44;;;;;;;1.70;1.57;;;6.80;99.90;;;;;;5027906;28;20215;-78
2023/12/31 09:01:12;;;;;;;1.50;1.40;;;6.80;99.90;;;;;;5027561;28;20263;-78
2023/12/31 09:03:40;;;;;;;2.27;1.60;;;6.80;99.90;;;;;;5027712;28;20240;-78
2023/12/31 09:06:10;;;;;;;1.60;1.50;;;6.80;99.90;;;;;;5027452;28;20291;-77
2023/12/31 09:08:37;;;;;;;1.90;1.63;;;6.80;99.90;;;;;;5026830;28;20598;-78
2023/12/31 09:11:03;;;;;;;1.60;1.50;;;6.80;99.90;;;;;;5027535;28;20232;-80
2023/12/31 09:13:30;;;;;;;1.70;1.60;;;6.80;99.90;;;;;;5027591;28;20228;-77
2023/12/31 09:15:57;;;;;;;1.93;1.83;;;6.80;99.90;;;;;;5032845;28;20224;-78
2023/12/31 09:18:24;;;;;;;2.10;1.70;;;6.80;99.90;;;;;;5037750;28;20284;-78
2023/12/31 09:20:53;;;;;;;2.27;1.70;;;6.90;99.90;;;;;;5041031;28;20572;-78
2023/12/31 09:23:19;;;;;;;1.80;1.70;;;6.90;99.90;;;;;;5044371;28;20298;-78
2023/12/31 09:25:46;;;;;;;2.77;1.80;;;6.90;99.90;;;;;;5044345;28;20208;-78
2023/12/31 09:28:13;;;;;;;3.67;2.07;;;7.00;99.90;;;;;;5041150;28;20287;-78
2023/12/31 09:30:40;;;;;;;3.30;1.70;;;7.00;99.90;;;;;;5037964;28;20232;-78
2023/12/31 09:33:07;;;;;;;2.93;1.93;;;7.00;99.90;;;;;;5034350;28;20204;-78
2023/12/31 09:35:34;;;;;;;4.00;1.73;;;7.00;99.90;;;;;;5025154;28;20327;-78
2023/12/31 09:38:03;;;;;;;3.27;1.97;;;7.00;99.90;;;;;;5038117;28;20208;-78
2023/12/31 09:40:30;;;;;;;2.83;1.70;;;7.00;99.90;;;;;;5042184;28;20302;-78
2023/12/31 09:42:57;;;;;;;1.80;1.70;;;7.00;99.90;;;;;;5042439;28;20290;-78
2023/12/31 09:45:25;;;;;;;2.33;1.80;;;7.00;99.90;;;;;;5041934;28;20307;-78
2023/12/31 09:47:54;;;;;;;2.90;2.10;;;7.10;99.90;;;;;;5042310;28;20611;-79
2023/12/31 09:50:23;;;;;;;3.50;1.90;;;7.10;99.90;;;;;;5041182;28;20204;-79
2023/12/31 09:52:51;;;;;;;2.63;1.80;;;7.00;99.90;;;;;;5042573;28;20299;-78
2023/12/31 09:55:20;;;;;;;2.17;2.00;;;7.10;99.90;;;;;;5041993;28;20259;-78
2023/12/31 09:57:48;;;;;;;2.00;1.80;;;7.10;99.90;;;;;;5022398;28;20299;-79
2023/12/31 10:00:15;;;;;;;3.57;2.00;;;7.20;99.90;;;;;;5022084;28;20248;-78
2023/12/31 10:02:44;;;;;;;2.00;1.90;;;7.10;99.90;;;;;;5022556;28;20213;-78
2023/12/31 10:05:12;;;;;;;2.30;1.87;;;7.20;99.90;;;;;;5022040;28;20679;-77
2023/12/31 10:07:39;;;;;;;2.30;2.10;;;7.20;99.90;;;;;;5021632;28;20234;-78
2023/12/31 10:10:08;;;;;;;2.70;2.10;;;7.20;99.90;;;;;;5021773;28;20239;-78
2023/12/31 10:12:37;;;;;;;4.60;1.90;;;7.20;99.90;;;;;;5022307;28;20213;-78
2023/12/31 10:15:04;;;;;;;2.10;1.90;;;7.20;99.90;;;;;;5022105;28;20606;-78
2023/12/31 10:17:32;;;;;;;2.33;2.13;;;7.20;99.90;;;;;;5022858;28;20563;-78
2023/12/31 10:19:59;;;;;;;1.90;1.80;;;7.20;99.90;;;;;;5032683;28;20737;-78
2023/12/31 10:22:30;;;;;;;2.90;1.90;;;7.20;99.90;;;;;;5045815;28;20209;-78
2023/12/31 10:25:14;;;;;;;2.57;2.30;;;7.30;99.90;;;;;;5044632;28;20196;-78
2023/12/31 10:27:44;;;;;;;2.40;2.20;;;7.30;99.90;;;;;;5025524;28;20227;-78
2023/12/31 10:30:12;;;;;;;2.97;1.83;;;7.30;99.90;;;;;;5032109;28;20959;-78
2023/12/31 10:32:39;;;;;;;3.10;1.83;;;7.30;99.90;;;;;;5048412;28;20204;-79
2023/12/31 10:35:07;;;;;;;2.93;1.80;;;7.40;99.90;;;;;;5048227;28;20235;-78
2023/12/31 10:37:34;;;;;;;3.83;1.67;;;7.40;99.90;;;;;;5047753;28;20216;-78
2023/12/31 10:40:17;;;;;;;4.17;1.93;;;7.40;99.90;;;;;;5048362;28;20203;-79
2023/12/31 10:42:48;;;;;;;4.30;2.13;;;7.40;99.90;;;;;;5047868;28;20202;-79
2023/12/31 10:45:17;;;;;;;2.10;1.90;;;7.40;99.90;;;;;;5046272;28;20188;-79
2023/12/31 10:47:45;;;;;;;1.80;1.70;;;7.40;99.90;;;;;;5027454;28;20682;-79
2023/12/31 10:50:17;;;;;;;2.03;1.80;;;7.50;99.90;;;;;;5027742;28;20213;-79
2023/12/31 10:52:46;;;;;;;2.13;1.70;;;7.50;99.90;;;;;;5027797;28;20283;-78
2023/12/31 10:55:14;;;;;;;1.40;1.30;;;7.60;99.90;;;;;;5027767;28;20248;-79
2023/12/31 10:57:43;;;;;;;2.10;1.90;;;7.60;99.90;;;;;;5047359;28;20216;-79
2023/12/31 11:00:12;;;;;;;2.53;1.80;;;7.60;99.90;;;;;;5047896;28;20583;-79
2023/12/31 11:02:39;;;;;;;2.13;1.60;;;7.70;99.90;;;;;;5047655;28;20742;-79
2023/12/31 11:05:07;;;;;;;1.50;1.40;;;7.70;99.90;;;;;;5047661;28;20246;-79
2023/12/31 11:07:35;;;;;;;1.70;1.60;;;7.70;99.90;;;;;;5047423;28;20287;-78
2023/12/31 11:10:03;;;;;;;2.73;1.63;;;7.70;99.90;;;;;;5047770;28;20244;-78
2023/12/31 11:12:31;;;;;;;1.90;1.50;;;7.70;99.90;;;;;;5047768;28;20212;-79
2023/12/31 11:15:04;;;;;;;2.63;1.53;;;7.70;99.90;;;;;;5047756;28;20423;-78
2023/12/31 11:17:50;;;;;;;2.07;1.97;;;7.70;99.90;;;;;;5047824;28;20251;-79
2023/12/31 11:20:35;;;;;;;2.20;1.83;;;7.70;99.90;;;;;;5047056;28;20188;-79
2023/12/31 11:23:09;;;;;;;1.63;1.53;;;7.80;99.90;;;;;;5047466;28;20287;-79
2023/12/31 11:25:38;;;;;;;1.97;1.60;;;7.70;99.90;;;;;;5044995;28;20264;-78
2023/12/31 11:28:09;;;;;;;3.03;1.70;;;7.80;99.90;;;;;;5027496;28;20296;-78
2023/12/31 11:30:46;;;;;;;3.63;1.60;;;7.80;99.90;;;;;;5045359;28;20617;-77
2023/12/31 11:33:17;;;;;;;1.97;1.47;;;7.80;99.90;;;;;;5048897;28;20212;-78
2023/12/31 11:35:45;;;;;;;1.50;1.40;;;7.70;99.90;;;;;;5048333;28;20246;-78
2023/12/31 11:38:12;;;;;;;1.70;1.60;;;7.80;99.90;;;;;;5047530;28;20222;-78
2023/12/31 11:40:40;;;;;;;2.60;1.83;;;7.80;99.90;;;;;;5048295;28;20239;-78
2023/12/31 11:43:12;;;;;;;1.90;1.80;;;7.80;99.90;;;;;;5048577;28;20208;-78
2023/12/31 11:45:46;;;;;;;12.80;10.97;;;7.80;99.90;;;;;;5048543;28;20200;-78
2023/12/31 11:48:25;;;;;;;2.53;2.17;;;7.80;99.90;;;;;;5048708;28;20195;-78
2023/12/31 11:50:53;;;;;;;1.57;1.43;;;7.80;99.90;;;;;;5036331;28;20612;-78
2023/12/31 11:53:22;;;;;;;2.10;1.50;;;7.90;99.90;;;;;;5035551;28;20323;-77
2023/12/31 11:55:53;;;;;;;1.50;1.40;;;7.80;99.90;;;;;;5040322;28;20952;-77
2023/12/31 11:58:21;;;;;;;1.80;1.70;;;7.90;99.90;;;;;;5040145;28;20185;-77
2023/12/31 12:00:49;;;;;;;2.27;1.90;;;7.90;99.90;;;;;;5036853;28;20234;-79
2023/12/31 12:03:17;;;;;;;2.47;1.80;;;7.90;99.90;;;;;;5038031;28;20203;-78
2023/12/31 12:05:47;;;;;;;1.63;1.53;;;7.90;99.90;;;;;;5038817;28;20266;-77
2023/12/31 12:08:14;;;;;;;1.43;1.33;;;7.90;99.90;;;;;;5036195;28;20279;-77
2023/12/31 12:10:42;;;;;;;1.57;1.30;;;7.90;99.90;;;;;;5037374;28;20337;-79
2023/12/31 12:13:09;;;;;;;1.90;1.80;;;8.00;99.90;;;;;;5038899;28;20221;-78
2023/12/31 12:15:37;;;;;;;1.90;1.63;;;8.00;99.90;;;;;;5036716;28;20323;-78
2023/12/31 12:18:21;;;;;;;2.03;1.50;;;8.00;99.90;;;;;;5037104;28;20227;-79
2023/12/31 12:20:49;;;;;;;1.40;1.27;;;8.00;99.90;;;;;;5032728;28;20200;-79
2023/12/31 12:23:18;;;;;;;1.50;1.40;;;8.10;99.90;;;;;;5035525;28;20262;-79
2023/12/31 12:25:45;;;;;;;1.83;1.47;;;8.10;99.90;;;;;;5039045;28;20208;-79
2023/12/31 12:28:14;;;;;;;2.37;1.43;;;8.10;99.90;;;;;;5038029;28;20200;-79
2023/12/31 12:30:41;;;;;;;2.27;1.73;;;8.10;99.90;;;;;;5038106;28;20312;-79
2023/12/31 12:33:08;;;;;;;1.40;1.30;;;8.10;99.90;;;;;;5036315;28;20200;-79
2023/12/31 12:35:38;;;;;;;1.83;1.50;;;8.20;99.90;;;;;;5034809;28;20229;-78
2023/12/31 12:38:07;;;;;;;1.43;1.27;;;8.20;99.90;;;;;;5041377;28;20576;-79
2023/12/31 12:40:34;;;;;;;1.63;1.53;;;8.10;99.90;;;;;;5036694;28;20201;-78
2023/12/31 12:43:02;;;;;;;1.63;1.53;;;8.20;99.90;;;;;;5036488;28;20223;-79
2023/12/31 12:45:29;;;;;;;3.63;1.63;;;8.10;99.90;;;;;;5035826;28;20266;-79
2023/12/31 12:47:59;;;;;;;1.60;1.50;;;8.10;99.90;;;;;;5035232;28;20248;-78
2023/12/31 12:50:29;;;;;;;1.40;1.30;;;8.20;99.90;;;;;;5046725;28;20208;-77
2023/12/31 12:52:56;;;;;;;1.77;1.50;;;8.10;99.90;;;;;;5046353;28;20238;-77
2023/12/31 12:55:24;;;;;;;1.60;1.50;;;8.10;99.90;;;;;;5047283;28;20269;-78
2023/12/31 12:57:51;;;;;;;1.50;1.40;;;8.10;99.90;;;;;;5047160;28;20286;-78
2023/12/31 13:00:19;;;;;;;2.30;1.77;;;8.10;99.90;;;;;;5047546;28;20551;-78